sensor_id;sensor_type;location;lat;lon;timestamp;pressure;altitude;pressure_sealevel;temperature
62107;BMP280;48087;32.600;-97.100;2022-07-23T00:04:10;;;;37.221849999999996
62107;BMP280;48087;32.600;-97.100;2022-07-23T00:09:15;;;;36.77741
62107;BMP280;48087;32.600;-97.100;2022-07-23T00:14:18;;;;36.555189999999996
62107;BMP280;48087;32.600;-97.100;2022-07-23T00:19:23;;;;36.33297
62107;BMP280;48087;32.600;-97.100;2022-07-23T00:24:26;;;;36.166304999999994
62107;BMP280;48087;32.600;-97.100;2022-07-23T00:29:32;;;;35.721865
62107;BMP280;48087;32.600;-97.100;2022-07-23T00:34:34;;;;35.388535
62107;BMP280;48087;32.600;-97.100;2022-07-23T00:39:39;;;;35.166315
62107;BMP280;48087;32.600;-97.100;2022-07-23T00:44:42;;;;34.944095000000004
62107;BMP280;48087;32.600;-97.100;2022-07-23T00:49:47;;;;34.66632
62107;BMP280;48087;32.600;-97.100;2022-07-23T00:54:50;;;;34.055215
62107;BMP280;48087;32.600;-97.100;2022-07-23T00:59:56;;;;32.99967
62107;BMP280;48087;32.600;-97.100;2022-07-23T01:05:00;;;;32.277454999999996
62107;BMP280;48087;32.600;-97.100;2022-07-23T01:10:03;;;;31.944125
62107;BMP280;48087;32.600;-97.100;2022-07-23T01:15:07;;;;31.721904999999996
62107;BMP280;48087;32.600;-97.100;2022-07-23T01:20:11;;;;31.444129999999998
62107;BMP280;48087;32.600;-97.100;2022-07-23T01:25:16;;;;31.22191
62107;BMP280;48087;32.600;-97.100;2022-07-23T01:30:20;;;;31.166354999999996
62107;BMP280;48087;32.600;-97.100;2022-07-23T01:35:23;;;;30.999689999999998
62107;BMP280;48087;32.600;-97.100;2022-07-23T01:40:26;;;;30.833025
62107;BMP280;48087;32.600;-97.100;2022-07-23T01:45:30;;;;30.721915
62107;BMP280;48087;32.600;-97.100;2022-07-23T01:50:34;;;;30.66636
62107;BMP280;48087;32.600;-97.100;2022-07-23T01:55:39;;;;30.55525
62107;BMP280;48087;32.600;-97.100;2022-07-23T02:00:42;;;;30.333029999999997
62107;BMP280;48087;32.600;-97.100;2022-07-23T02:05:46;;;;30.277475
62107;BMP280;48087;32.600;-97.100;2022-07-23T02:10:51;;;;30.166365
62107;BMP280;48087;32.600;-97.100;2022-07-23T02:15:56;;;;30.166365
62107;BMP280;48087;32.600;-97.100;2022-07-23T02:20:58;;;;29.944145000000002
62107;BMP280;48087;32.600;-97.100;2022-07-23T02:26:02;;;;29.888589999999997
62107;BMP280;48087;32.600;-97.100;2022-07-23T02:31:06;;;;29.777479999999997
62107;BMP280;48087;32.600;-97.100;2022-07-23T02:36:10;;;;29.610815
62107;BMP280;48087;32.600;-97.100;2022-07-23T02:41:15;;;;29.499704999999995
62107;BMP280;48087;32.600;-97.100;2022-07-23T02:46:19;;;;29.55526
62107;BMP280;48087;32.600;-97.100;2022-07-23T02:51:23;;;;29.499704999999995
62107;BMP280;48087;32.600;-97.100;2022-07-23T02:56:27;;;;29.333039999999997
62107;BMP280;48087;32.600;-97.100;2022-07-23T03:01:31;;;;29.277485000000002
62107;BMP280;48087;32.600;-97.100;2022-07-23T03:06:34;;;;29.221929999999997
62107;BMP280;48087;32.600;-97.100;2022-07-23T03:11:39;;;;29.221929999999997
62107;BMP280;48087;32.600;-97.100;2022-07-23T03:16:43;;;;29.055265
62107;BMP280;48087;32.600;-97.100;2022-07-23T03:21:47;;;;29.055265
62107;BMP280;48087;32.600;-97.100;2022-07-23T03:26:50;;;;28.8886
62107;BMP280;48087;32.600;-97.100;2022-07-23T03:31:55;;;;28.777489999999997
62107;BMP280;48087;32.600;-97.100;2022-07-23T03:36:58;;;;28.666379999999997
62107;BMP280;48087;32.600;-97.100;2022-07-23T03:42:03;;;;28.555270000000004
62107;BMP280;48087;32.600;-97.100;2022-07-23T03:47:06;;;;28.499715
62107;BMP280;48087;32.600;-97.100;2022-07-23T03:52:11;;;;28.44416
62107;BMP280;48087;32.600;-97.100;2022-07-23T03:57:15;;;;28.388604999999995
62107;BMP280;48087;32.600;-97.100;2022-07-23T04:02:18;;;;28.388604999999995
62107;BMP280;48087;32.600;-97.100;2022-07-23T04:07:21;;;;28.277495000000002
62107;BMP280;48087;32.600;-97.100;2022-07-23T04:12:28;;;;28.221939999999996
62107;BMP280;48087;32.600;-97.100;2022-07-23T04:17:31;;;;28.221939999999996
62107;BMP280;48087;32.600;-97.100;2022-07-23T04:22:34;;;;28.110829999999996
62107;BMP280;48087;32.600;-97.100;2022-07-23T04:27:38;;;;28.055274999999998
62107;BMP280;48087;32.600;-97.100;2022-07-23T04:32:42;;;;27.944164999999998
62107;BMP280;48087;32.600;-97.100;2022-07-23T04:37:45;;;;27.833054999999995
62107;BMP280;48087;32.600;-97.100;2022-07-23T04:42:50;;;;27.833054999999995
62107;BMP280;48087;32.600;-97.100;2022-07-23T04:47:54;;;;27.721945
62107;BMP280;48087;32.600;-97.100;2022-07-23T04:52:58;;;;27.666389999999996
62107;BMP280;48087;32.600;-97.100;2022-07-23T04:58:02;;;;27.610835
62107;BMP280;48087;32.600;-97.100;2022-07-23T05:03:06;;;;27.555279999999996
62107;BMP280;48087;32.600;-97.100;2022-07-23T05:08:10;;;;27.388614999999998
62107;BMP280;48087;32.600;-97.100;2022-07-23T05:13:14;;;;27.277504999999998
62107;BMP280;48087;32.600;-97.100;2022-07-23T05:18:18;;;;27.22195
62107;BMP280;48087;32.600;-97.100;2022-07-23T05:23:22;;;;27.11084
62107;BMP280;48087;32.600;-97.100;2022-07-23T05:28:26;;;;26.999729999999996
62107;BMP280;48087;32.600;-97.100;2022-07-23T05:33:30;;;;26.888620000000003
62107;BMP280;48087;32.600;-97.100;2022-07-23T05:38:34;;;;26.77751
62107;BMP280;48087;32.600;-97.100;2022-07-23T05:43:39;;;;26.721954999999998
62107;BMP280;48087;32.600;-97.100;2022-07-23T05:48:42;;;;26.721954999999998
62107;BMP280;48087;32.600;-97.100;2022-07-23T05:53:45;;;;26.721954999999998
62107;BMP280;48087;32.600;-97.100;2022-07-23T05:58:51;;;;26.6664
62107;BMP280;48087;32.600;-97.100;2022-07-23T06:03:53;;;;26.6664
62107;BMP280;48087;32.600;-97.100;2022-07-23T06:08:58;;;;26.55529
62107;BMP280;48087;32.600;-97.100;2022-07-23T06:14:02;;;;26.499735
62107;BMP280;48087;32.600;-97.100;2022-07-23T06:19:06;;;;26.499735
62107;BMP280;48087;32.600;-97.100;2022-07-23T06:24:09;;;;26.499735
62107;BMP280;48087;32.600;-97.100;2022-07-23T06:29:14;;;;26.444179999999996
62107;BMP280;48087;32.600;-97.100;2022-07-23T06:34:17;;;;26.444179999999996
62107;BMP280;48087;32.600;-97.100;2022-07-23T06:39:22;;;;26.333070000000003
62107;BMP280;48087;32.600;-97.100;2022-07-23T06:44:26;;;;26.22196
62107;BMP280;48087;32.600;-97.100;2022-07-23T06:49:30;;;;26.22196
62107;BMP280;48087;32.600;-97.100;2022-07-23T06:59:38;;;;26.333070000000003
62107;BMP280;48087;32.600;-97.100;2022-07-23T07:04:41;;;;26.22196
62107;BMP280;48087;32.600;-97.100;2022-07-23T07:09:45;;;;26.11085
62107;BMP280;48087;32.600;-97.100;2022-07-23T07:14:49;;;;26.055295
62107;BMP280;48087;32.600;-97.100;2022-07-23T07:19:53;;;;26.166404999999997
62107;BMP280;48087;32.600;-97.100;2022-07-23T07:24:57;;;;26.166404999999997
62107;BMP280;48087;32.600;-97.100;2022-07-23T07:30:02;;;;26.11085
62107;BMP280;48087;32.600;-97.100;2022-07-23T07:35:07;;;;25.99974
62107;BMP280;48087;32.600;-97.100;2022-07-23T07:40:11;;;;25.944185
62107;BMP280;48087;32.600;-97.100;2022-07-23T07:45:14;;;;25.944185
62107;BMP280;48087;32.600;-97.100;2022-07-23T07:50:17;;;;25.833075
62107;BMP280;48087;32.600;-97.100;2022-07-23T07:55:22;;;;25.721964999999997
62107;BMP280;48087;32.600;-97.100;2022-07-23T08:00:25;;;;25.721964999999997
62107;BMP280;48087;32.600;-97.100;2022-07-23T08:05:30;;;;25.721964999999997
62107;BMP280;48087;32.600;-97.100;2022-07-23T08:10:33;;;;25.721964999999997
62107;BMP280;48087;32.600;-97.100;2022-07-23T08:15:38;;;;25.666410000000003
62107;BMP280;48087;32.600;-97.100;2022-07-23T08:20:41;;;;25.610854999999997
62107;BMP280;48087;32.600;-97.100;2022-07-23T08:25:46;;;;25.499745000000004
62107;BMP280;48087;32.600;-97.100;2022-07-23T08:30:49;;;;25.388635
62107;BMP280;48087;32.600;-97.100;2022-07-23T08:35:54;;;;25.277525
62107;BMP280;48087;32.600;-97.100;2022-07-23T08:40:57;;;;25.221970000000002
62107;BMP280;48087;32.600;-97.100;2022-07-23T08:46:03;;;;25.166414999999997
62107;BMP280;48087;32.600;-97.100;2022-07-23T08:51:05;;;;25.055304999999997
62107;BMP280;48087;32.600;-97.100;2022-07-23T08:56:09;;;;24.99975
62107;BMP280;48087;32.600;-97.100;2022-07-23T09:01:13;;;;24.99975
62107;BMP280;48087;32.600;-97.100;2022-07-23T09:06:18;;;;25.055304999999997
62107;BMP280;48087;32.600;-97.100;2022-07-23T09:11:21;;;;24.944195000000004
62107;BMP280;48087;32.600;-97.100;2022-07-23T09:16:26;;;;24.944195000000004
62107;BMP280;48087;32.600;-97.100;2022-07-23T09:21:29;;;;24.777529999999995
62107;BMP280;48087;32.600;-97.100;2022-07-23T09:26:34;;;;24.721975
62107;BMP280;48087;32.600;-97.100;2022-07-23T09:31:45;;;;24.721975
62107;BMP280;48087;32.600;-97.100;2022-07-23T09:36:42;;;;24.721975
62107;BMP280;48087;32.600;-97.100;2022-07-23T09:41:45;;;;24.666420000000002
62107;BMP280;48087;32.600;-97.100;2022-07-23T09:46:50;;;;24.610864999999997
62107;BMP280;48087;32.600;-97.100;2022-07-23T09:51:54;;;;24.555310000000002
62107;BMP280;48087;32.600;-97.100;2022-07-23T09:56:58;;;;24.610864999999997
62107;BMP280;48087;32.600;-97.100;2022-07-23T10:02:01;;;;24.610864999999997
62107;BMP280;48087;32.600;-97.100;2022-07-23T10:07:06;;;;24.499754999999997
62107;BMP280;48087;32.600;-97.100;2022-07-23T10:12:10;;;;24.555310000000002
62107;BMP280;48087;32.600;-97.100;2022-07-23T10:17:14;;;;24.499754999999997
62107;BMP280;48087;32.600;-97.100;2022-07-23T10:22:19;;;;24.499754999999997
62107;BMP280;48087;32.600;-97.100;2022-07-23T10:27:41;;;;24.555310000000002
62107;BMP280;48087;32.600;-97.100;2022-07-23T10:32:28;;;;24.555310000000002
62107;BMP280;48087;32.600;-97.100;2022-07-23T10:37:31;;;;24.555310000000002
62107;BMP280;48087;32.600;-97.100;2022-07-23T10:42:33;;;;24.555310000000002
62107;BMP280;48087;32.600;-97.100;2022-07-23T10:47:38;;;;24.555310000000002
62107;BMP280;48087;32.600;-97.100;2022-07-23T10:52:40;;;;24.499754999999997
62107;BMP280;48087;32.600;-97.100;2022-07-23T10:57:47;;;;24.555310000000002
62107;BMP280;48087;32.600;-97.100;2022-07-23T11:02:49;;;;24.499754999999997
62107;BMP280;48087;32.600;-97.100;2022-07-23T11:08:11;;;;24.555310000000002
62107;BMP280;48087;32.600;-97.100;2022-07-23T11:12:58;;;;24.555310000000002
62107;BMP280;48087;32.600;-97.100;2022-07-23T11:18:01;;;;24.499754999999997
62107;BMP280;48087;32.600;-97.100;2022-07-23T11:23:05;;;;24.499754999999997
62107;BMP280;48087;32.600;-97.100;2022-07-23T11:28:11;;;;24.555310000000002
62107;BMP280;48087;32.600;-97.100;2022-07-23T11:33:16;;;;24.555310000000002
62107;BMP280;48087;32.600;-97.100;2022-07-23T11:38:17;;;;24.499754999999997
62107;BMP280;48087;32.600;-97.100;2022-07-23T11:43:20;;;;24.555310000000002
62107;BMP280;48087;32.600;-97.100;2022-07-23T11:48:26;;;;24.555310000000002
62107;BMP280;48087;32.600;-97.100;2022-07-23T11:53:29;;;;24.555310000000002
62107;BMP280;48087;32.600;-97.100;2022-07-23T11:58:33;;;;24.666420000000002
62107;BMP280;48087;32.600;-97.100;2022-07-23T12:03:37;;;;24.666420000000002
62107;BMP280;48087;32.600;-97.100;2022-07-23T12:08:40;;;;24.721975
62107;BMP280;48087;32.600;-97.100;2022-07-23T12:13:44;;;;24.721975
62107;BMP280;48087;32.600;-97.100;2022-07-23T12:18:49;;;;24.721975
62107;BMP280;48087;32.600;-97.100;2022-07-23T12:23:52;;;;24.777529999999995
62107;BMP280;48087;32.600;-97.100;2022-07-23T12:28:57;;;;24.944195000000004
62107;BMP280;48087;32.600;-97.100;2022-07-23T12:34:01;;;;25.055304999999997
62107;BMP280;48087;32.600;-97.100;2022-07-23T12:39:05;;;;25.166414999999997
62107;BMP280;48087;32.600;-97.100;2022-07-23T12:44:14;;;;25.277525
62107;BMP280;48087;32.600;-97.100;2022-07-23T12:49:12;;;;25.5553
62107;BMP280;48087;32.600;-97.100;2022-07-23T12:54:17;;;;25.833075
62107;BMP280;48087;32.600;-97.100;2022-07-23T12:59:20;;;;26.166404999999997
62107;BMP280;48087;32.600;-97.100;2022-07-23T13:04:25;;;;26.499735
62107;BMP280;48087;32.600;-97.100;2022-07-23T13:09:29;;;;26.6664
62107;BMP280;48087;32.600;-97.100;2022-07-23T13:14:32;;;;26.721954999999998
62107;BMP280;48087;32.600;-97.100;2022-07-23T13:19:36;;;;26.721954999999998
62107;BMP280;48087;32.600;-97.100;2022-07-23T13:24:43;;;;27.11084
62107;BMP280;48087;32.600;-97.100;2022-07-23T13:29:45;;;;27.33306
62107;BMP280;48087;32.600;-97.100;2022-07-23T13:34:48;;;;27.499724999999998
62107;BMP280;48087;32.600;-97.100;2022-07-23T13:39:53;;;;27.721945
62107;BMP280;48087;32.600;-97.100;2022-07-23T13:44:56;;;;27.88861
62107;BMP280;48087;32.600;-97.100;2022-07-23T13:50:00;;;;27.88861
62107;BMP280;48087;32.600;-97.100;2022-07-23T13:55:05;;;;28.110829999999996
62107;BMP280;48087;32.600;-97.100;2022-07-23T14:00:11;;;;28.610825
62107;BMP280;48087;32.600;-97.100;2022-07-23T14:05:12;;;;28.666379999999997
62107;BMP280;48087;32.600;-97.100;2022-07-23T14:10:16;;;;28.777489999999997
62107;BMP280;48087;32.600;-97.100;2022-07-23T14:15:20;;;;28.666379999999997
62107;BMP280;48087;32.600;-97.100;2022-07-23T14:20:24;;;;29.110820000000004
62107;BMP280;48087;32.600;-97.100;2022-07-23T14:25:29;;;;29.277485000000002
62107;BMP280;48087;32.600;-97.100;2022-07-23T14:30:32;;;;29.110820000000004
62107;BMP280;48087;32.600;-97.100;2022-07-23T14:35:38;;;;29.721925
62107;BMP280;48087;32.600;-97.100;2022-07-23T14:40:41;;;;29.666370000000004
62107;BMP280;48087;32.600;-97.100;2022-07-23T14:45:44;;;;30.166365
62107;BMP280;48087;32.600;-97.100;2022-07-23T14:50:48;;;;29.721925
62107;BMP280;48087;32.600;-97.100;2022-07-23T14:55:53;;;;30.055254999999995
62107;BMP280;48087;32.600;-97.100;2022-07-23T15:00:56;;;;30.944135
62107;BMP280;48087;32.600;-97.100;2022-07-23T15:06:00;;;;31.33302
62107;BMP280;48087;32.600;-97.100;2022-07-23T15:11:04;;;;31.33302
62107;BMP280;48087;32.600;-97.100;2022-07-23T15:16:08;;;;31.22191
62107;BMP280;48087;32.600;-97.100;2022-07-23T15:21:12;;;;30.944135
62107;BMP280;48087;32.600;-97.100;2022-07-23T15:26:17;;;;31.277465
62107;BMP280;48087;32.600;-97.100;2022-07-23T15:31:19;;;;31.388575
62107;BMP280;48087;32.600;-97.100;2022-07-23T15:36:24;;;;31.666349999999998
62107;BMP280;48087;32.600;-97.100;2022-07-23T15:41:28;;;;31.721904999999996
62107;BMP280;48087;32.600;-97.100;2022-07-23T15:46:32;;;;32.2219
62107;BMP280;48087;32.600;-97.100;2022-07-23T15:51:36;;;;32.277454999999996
62107;BMP280;48087;32.600;-97.100;2022-07-23T15:56:39;;;;32.166345
62107;BMP280;48087;32.600;-97.100;2022-07-23T16:01:44;;;;32.88856
62107;BMP280;48087;32.600;-97.100;2022-07-23T16:06:48;;;;33.44411
62107;BMP280;48087;32.600;-97.100;2022-07-23T16:11:52;;;;32.66634
62107;BMP280;48087;32.600;-97.100;2022-07-23T16:16:55;;;;32.944115
62107;BMP280;48087;32.600;-97.100;2022-07-23T16:22:01;;;;32.88856
62107;BMP280;48087;32.600;-97.100;2022-07-23T16:27:03;;;;33.832995000000004
62107;BMP280;48087;32.600;-97.100;2022-07-23T16:32:07;;;;33.832995000000004
62107;BMP280;48087;32.600;-97.100;2022-07-23T16:37:11;;;;34.4441
62107;BMP280;48087;32.600;-97.100;2022-07-23T16:42:16;;;;33.666329999999995
62107;BMP280;48087;32.600;-97.100;2022-07-23T16:47:19;;;;34.277435000000004
62107;BMP280;48087;32.600;-97.100;2022-07-23T16:52:24;;;;35.33298
62107;BMP280;48087;32.600;-97.100;2022-07-23T16:57:27;;;;35.33298
62107;BMP280;48087;32.600;-97.100;2022-07-23T17:02:32;;;;35.832975
62107;BMP280;48087;32.600;-97.100;2022-07-23T17:07:36;;;;35.33298
62107;BMP280;48087;32.600;-97.100;2022-07-23T17:12:40;;;;35.721865
62107;BMP280;48087;32.600;-97.100;2022-07-23T17:17:43;;;;36.22186
62107;BMP280;48087;32.600;-97.100;2022-07-23T17:22:48;;;;37.221849999999996
62107;BMP280;48087;32.600;-97.100;2022-07-23T17:27:51;;;;36.555189999999996
62107;BMP280;48087;32.600;-97.100;2022-07-23T17:32:55;;;;36.721855
62107;BMP280;48087;32.600;-97.100;2022-07-23T17:37:59;;;;36.944075
62107;BMP280;48087;32.600;-97.100;2022-07-23T17:43:03;;;;37.7774
62107;BMP280;48087;32.600;-97.100;2022-07-23T17:48:07;;;;37.221849999999996
62107;BMP280;48087;32.600;-97.100;2022-07-23T17:53:12;;;;37.721845
62107;BMP280;48087;32.600;-97.100;2022-07-23T17:58:15;;;;37.11074
62107;BMP280;48087;32.600;-97.100;2022-07-23T18:03:20;;;;37.055185
62107;BMP280;48087;32.600;-97.100;2022-07-23T18:08:23;;;;38.66627999999999
62107;BMP280;48087;32.600;-97.100;2022-07-23T18:13:28;;;;37.944064999999995
62107;BMP280;48087;32.600;-97.100;2022-07-23T18:18:31;;;;38.277395000000006
62107;BMP280;48087;32.600;-97.100;2022-07-23T18:23:37;;;;39.277385
62107;BMP280;48087;32.600;-97.100;2022-07-23T18:28:39;;;;38.33295
62107;BMP280;48087;32.600;-97.100;2022-07-23T18:33:45;;;;38.166285
62107;BMP280;48087;32.600;-97.100;2022-07-23T18:38:47;;;;38.388504999999995
62107;BMP280;48087;32.600;-97.100;2022-07-23T18:43:52;;;;38.77739
62107;BMP280;48087;32.600;-97.100;2022-07-23T18:48:55;;;;38.999610000000004
62107;BMP280;48087;32.600;-97.100;2022-07-23T18:54:00;;;;39.944045
62107;BMP280;48087;32.600;-97.100;2022-07-23T18:59:03;;;;38.44406
62107;BMP280;48087;32.600;-97.100;2022-07-23T19:04:08;;;;39.44405
62107;BMP280;48087;32.600;-97.100;2022-07-23T19:09:11;;;;39.832935
62107;BMP280;48087;32.600;-97.100;2022-07-23T19:14:16;;;;39.11072
62107;BMP280;48087;32.600;-97.100;2022-07-23T19:19:19;;;;39.610715
62107;BMP280;48087;32.600;-97.100;2022-07-23T19:24:23;;;;39.388495
62107;BMP280;48087;32.600;-97.100;2022-07-23T19:29:27;;;;38.77739
62107;BMP280;48087;32.600;-97.100;2022-07-23T19:34:32;;;;40.11071
62107;BMP280;48087;32.600;-97.100;2022-07-23T19:39:35;;;;40.944035
62107;BMP280;48087;32.600;-97.100;2022-07-23T19:44:40;;;;38.8885
62107;BMP280;48087;32.600;-97.100;2022-07-23T19:49:43;;;;39.166275
62107;BMP280;48087;32.600;-97.100;2022-07-23T19:54:48;;;;39.22183
62107;BMP280;48087;32.600;-97.100;2022-07-23T19:59:51;;;;39.055164999999995
62107;BMP280;48087;32.600;-97.100;2022-07-23T20:04:55;;;;39.277385
62107;BMP280;48087;32.600;-97.100;2022-07-23T20:10:00;;;;40.66626
62107;BMP280;48087;32.600;-97.100;2022-07-23T20:15:05;;;;40.721815
62107;BMP280;48087;32.600;-97.100;2022-07-23T20:20:07;;;;40.721815
62107;BMP280;48087;32.600;-97.100;2022-07-23T20:25:12;;;;40.33293
62107;BMP280;48087;32.600;-97.100;2022-07-23T20:30:15;;;;39.277385
62107;BMP280;48087;32.600;-97.100;2022-07-23T20:35:20;;;;40.055155
62107;BMP280;48087;32.600;-97.100;2022-07-23T20:40:24;;;;39.777379999999994
62107;BMP280;48087;32.600;-97.100;2022-07-23T20:45:28;;;;41.16625499999999
62107;BMP280;48087;32.600;-97.100;2022-07-23T20:50:31;;;;41.22181
62107;BMP280;48087;32.600;-97.100;2022-07-23T20:55:36;;;;40.99959
62107;BMP280;48087;32.600;-97.100;2022-07-23T21:00:39;;;;41.944024999999996
62107;BMP280;48087;32.600;-97.100;2022-07-23T21:05:43;;;;40.499595
62107;BMP280;48087;32.600;-97.100;2022-07-23T21:10:47;;;;38.555170000000004
62107;BMP280;48087;32.600;-97.100;2022-07-23T21:15:51;;;;38.944055
62107;BMP280;48087;32.600;-97.100;2022-07-23T21:20:55;;;;40.055155
62107;BMP280;48087;32.600;-97.100;2022-07-23T21:25:59;;;;39.88849
62107;BMP280;48087;32.600;-97.100;2022-07-23T21:31:04;;;;40.055155
62107;BMP280;48087;32.600;-97.100;2022-07-23T21:36:07;;;;40.832924999999996
62107;BMP280;48087;32.600;-97.100;2022-07-23T21:41:11;;;;40.777370000000005
62107;BMP280;48087;32.600;-97.100;2022-07-23T21:46:15;;;;41.1107
62107;BMP280;48087;32.600;-97.100;2022-07-23T21:51:20;;;;39.721825
62107;BMP280;48087;32.600;-97.100;2022-07-23T21:56:23;;;;38.832945
62107;BMP280;48087;32.600;-97.100;2022-07-23T22:01:27;;;;39.499604999999995
62107;BMP280;48087;32.600;-97.100;2022-07-23T22:06:31;;;;40.22182
62107;BMP280;48087;32.600;-97.100;2022-07-23T22:11:35;;;;40.166264999999996
62107;BMP280;48087;32.600;-97.100;2022-07-23T22:16:39;;;;40.721815
62107;BMP280;48087;32.600;-97.100;2022-07-23T22:21:43;;;;39.9996
62107;BMP280;48087;32.600;-97.100;2022-07-23T22:26:47;;;;39.499604999999995
62107;BMP280;48087;32.600;-97.100;2022-07-23T22:31:52;;;;39.166275
62107;BMP280;48087;32.600;-97.100;2022-07-23T22:36:54;;;;39.33294
62107;BMP280;48087;32.600;-97.100;2022-07-23T22:41:59;;;;39.944045
62107;BMP280;48087;32.600;-97.100;2022-07-23T22:47:03;;;;40.44404
62107;BMP280;48087;32.600;-97.100;2022-07-23T22:52:08;;;;40.610704999999996
62107;BMP280;48087;32.600;-97.100;2022-07-23T22:57:11;;;;40.388485
62107;BMP280;48087;32.600;-97.100;2022-07-23T23:02:15;;;;39.388495
62107;BMP280;48087;32.600;-97.100;2022-07-23T23:07:19;;;;38.499615
62107;BMP280;48087;32.600;-97.100;2022-07-23T23:12:23;;;;38.721835
62107;BMP280;48087;32.600;-97.100;2022-07-23T23:17:27;;;;39.11072
62107;BMP280;48087;32.600;-97.100;2022-07-23T23:22:31;;;;39.721825
62107;BMP280;48087;32.600;-97.100;2022-07-23T23:27:35;;;;38.22184
62107;BMP280;48087;32.600;-97.100;2022-07-23T23:32:38;;;;38.832945
62107;BMP280;48087;32.600;-97.100;2022-07-23T23:37:44;;;;39.277385
62107;BMP280;48087;32.600;-97.100;2022-07-23T23:42:46;;;;38.77739
62107;BMP280;48087;32.600;-97.100;2022-07-23T23:47:51;;;;39.11072
62107;BMP280;48087;32.600;-97.100;2022-07-23T23:52:54;;;;39.11072
62107;BMP280;48087;32.600;-97.100;2022-07-23T23:57:59;;;;39.33294
